sensor_id;sensor_type;location;lat;lon;timestamp;pressure;altitude;pressure_sealevel;temperature;humidity
6096;BME280;25081;42.698;23.298;2022-11-11T00:01:22;96406.52;;;7.61;85.64
6096;BME280;25081;42.698;23.298;2022-11-11T00:03:33;96409.02;;;7.59;84.49
6096;BME280;25081;42.698;23.298;2022-11-11T00:05:43;96406.39;;;7.55;84.24
6096;BME280;25081;42.698;23.298;2022-11-11T00:07:54;96398.94;;;7.50;84.09
6096;BME280;25081;42.698;23.298;2022-11-11T00:10:06;96397.11;;;7.51;84.70
6096;BME280;25081;42.698;23.298;2022-11-11T00:12:16;96394.95;;;7.50;84.48
6096;BME280;25081;42.698;23.298;2022-11-11T00:14:27;96403.06;;;7.53;84.57
6096;BME280;25081;42.698;23.298;2022-11-11T00:16:38;96396.43;;;7.53;84.56
6096;BME280;25081;42.698;23.298;2022-11-11T00:19:06;96411.07;;;7.44;85.03
6096;BME280;25081;42.698;23.298;2022-11-11T00:21:35;96406.05;;;7.58;85.62
6096;BME280;25081;42.698;23.298;2022-11-11T00:26:39;96407.11;;;7.80;84.73
6096;BME280;25081;42.698;23.298;2022-11-11T00:28:50;96411.56;;;7.87;85.03
6096;BME280;25081;42.698;23.298;2022-11-11T00:31:05;96414.28;;;7.75;84.71
6096;BME280;25081;42.698;23.298;2022-11-11T00:33:15;96412.06;;;7.87;85.36
6096;BME280;25081;42.698;23.298;2022-11-11T00:35:25;96410.02;;;8.01;85.52
6096;BME280;25081;42.698;23.298;2022-11-11T00:37:53;96411.45;;;8.12;84.99
6096;BME280;25081;42.698;23.298;2022-11-11T00:40:06;96413.39;;;8.18;85.44
6096;BME280;25081;42.698;23.298;2022-11-11T00:42:16;96411.87;;;8.23;85.01
6096;BME280;25081;42.698;23.298;2022-11-11T00:44:26;96408.50;;;8.29;85.08
6096;BME280;25081;42.698;23.298;2022-11-11T00:46:37;96403.17;;;8.38;85.39
6096;BME280;25081;42.698;23.298;2022-11-11T00:49:06;96409.13;;;8.44;85.15
6096;BME280;25081;42.698;23.298;2022-11-11T00:51:34;96411.09;;;8.46;84.94
6096;BME280;25081;42.698;23.298;2022-11-11T00:53:45;96416.59;;;8.44;85.00
6096;BME280;25081;42.698;23.298;2022-11-11T00:55:55;96404.63;;;8.44;85.48
6096;BME280;25081;42.698;23.298;2022-11-11T00:58:06;96402.24;;;8.53;85.51
6096;BME280;25081;42.698;23.298;2022-11-11T01:00:17;96404.36;;;8.58;85.26
6096;BME280;25081;42.698;23.298;2022-11-11T01:02:27;96405.35;;;8.61;85.16
6096;BME280;25081;42.698;23.298;2022-11-11T01:04:38;96406.36;;;8.60;85.04
6096;BME280;25081;42.698;23.298;2022-11-11T01:06:48;96403.02;;;8.62;84.87
6096;BME280;25081;42.698;23.298;2022-11-11T01:09:00;96404.16;;;8.64;84.75
6096;BME280;25081;42.698;23.298;2022-11-11T01:11:16;96399.39;;;8.59;85.06
6096;BME280;25081;42.698;23.298;2022-11-11T01:13:26;96400.67;;;8.63;85.25
6096;BME280;25081;42.698;23.298;2022-11-11T01:15:36;96403.47;;;8.66;85.02
6096;BME280;25081;42.698;23.298;2022-11-11T01:17:47;96400.36;;;8.62;85.02
6096;BME280;25081;42.698;23.298;2022-11-11T01:19:57;96398.20;;;8.62;85.39
6096;BME280;25081;42.698;23.298;2022-11-11T01:22:08;96399.34;;;8.63;85.29
6096;BME280;25081;42.698;23.298;2022-11-11T01:24:18;96401.36;;;8.61;85.25
6096;BME280;25081;42.698;23.298;2022-11-11T01:26:29;96398.22;;;8.57;85.39
6096;BME280;25081;42.698;23.298;2022-11-11T01:28:40;96399.73;;;8.56;85.54
6096;BME280;25081;42.698;23.298;2022-11-11T01:30:50;96397.80;;;8.50;85.50
6096;BME280;25081;42.698;23.298;2022-11-11T01:33:01;96396.52;;;8.42;85.92
6096;BME280;25081;42.698;23.298;2022-11-11T01:35:11;96395.84;;;8.44;86.12
6096;BME280;25081;42.698;23.298;2022-11-11T01:37:22;96395.19;;;8.42;86.39
6096;BME280;25081;42.698;23.298;2022-11-11T01:39:33;96396.98;;;8.45;86.40
6096;BME280;25081;42.698;23.298;2022-11-11T01:41:43;96392.98;;;8.49;86.60
6096;BME280;25081;42.698;23.298;2022-11-11T01:43:54;96392.12;;;8.53;86.64
6096;BME280;25081;42.698;23.298;2022-11-11T01:46:08;96390.23;;;8.57;86.61
6096;BME280;25081;42.698;23.298;2022-11-11T01:48:18;96398.06;;;8.59;86.48
6096;BME280;25081;42.698;23.298;2022-11-11T01:50:45;96400.55;;;8.56;86.33
6096;BME280;25081;42.698;23.298;2022-11-11T01:52:56;96400.86;;;8.62;86.36
6096;BME280;25081;42.698;23.298;2022-11-11T01:55:08;96403.02;;;8.58;86.41
6096;BME280;25081;42.698;23.298;2022-11-11T01:57:18;96399.22;;;8.56;86.89
6096;BME280;25081;42.698;23.298;2022-11-11T01:59:27;96397.71;;;8.58;87.13
6096;BME280;25081;42.698;23.298;2022-11-11T02:01:38;96398.08;;;8.55;87.39
6096;BME280;25081;42.698;23.298;2022-11-11T02:03:49;96403.44;;;8.51;87.43
6096;BME280;25081;42.698;23.298;2022-11-11T02:06:18;96406.41;;;8.52;87.65
6096;BME280;25081;42.698;23.298;2022-11-11T02:08:30;96406.14;;;8.43;88.01
6096;BME280;25081;42.698;23.298;2022-11-11T02:10:43;96408.62;;;8.44;88.42
6096;BME280;25081;42.698;23.298;2022-11-11T02:12:52;96409.80;;;8.42;88.65
6096;BME280;25081;42.698;23.298;2022-11-11T02:15:21;96413.57;;;8.47;88.85
6096;BME280;25081;42.698;23.298;2022-11-11T02:17:32;96406.47;;;8.44;89.71
6096;BME280;25081;42.698;23.298;2022-11-11T02:19:47;96411.91;;;8.50;89.64
6096;BME280;25081;42.698;23.298;2022-11-11T02:21:58;96399.78;;;8.48;89.51
6096;BME280;25081;42.698;23.298;2022-11-11T02:24:07;96405.86;;;8.60;89.26
6096;BME280;25081;42.698;23.298;2022-11-11T02:26:17;96344.83;;;8.21;89.22
6096;BME280;25081;42.698;23.298;2022-11-11T02:28:28;96409.34;;;8.61;89.13
6096;BME280;25081;42.698;23.298;2022-11-11T02:30:38;96410.80;;;8.64;89.08
6096;BME280;25081;42.698;23.298;2022-11-11T02:32:50;96409.98;;;8.63;89.09
6096;BME280;25081;42.698;23.298;2022-11-11T02:34:59;96412.13;;;8.64;88.63
6096;BME280;25081;42.698;23.298;2022-11-11T02:37:10;96413.33;;;8.61;89.02
6096;BME280;25081;42.698;23.298;2022-11-11T02:39:20;96408.01;;;8.61;88.81
6096;BME280;25081;42.698;23.298;2022-11-11T02:41:30;96411.00;;;8.58;89.00
6096;BME280;25081;42.698;23.298;2022-11-11T02:44:09;96408.02;;;8.57;89.10
6096;BME280;25081;42.698;23.298;2022-11-11T02:46:19;96413.16;;;8.58;88.95
6096;BME280;25081;42.698;23.298;2022-11-11T02:48:30;96416.75;;;8.70;89.07
6096;BME280;25081;42.698;23.298;2022-11-11T02:50:40;96411.02;;;8.77;88.97
6096;BME280;25081;42.698;23.298;2022-11-11T02:52:50;96414.45;;;8.85;88.44
6096;BME280;25081;42.698;23.298;2022-11-11T02:55:01;96416.28;;;8.85;87.95
6096;BME280;25081;42.698;23.298;2022-11-11T02:57:11;96422.10;;;8.84;88.06
6096;BME280;25081;42.698;23.298;2022-11-11T02:59:22;96416.14;;;8.82;88.07
6096;BME280;25081;42.698;23.298;2022-11-11T03:01:32;96417.16;;;8.81;88.01
6096;BME280;25081;42.698;23.298;2022-11-11T03:03:43;96422.61;;;8.84;88.01
6096;BME280;25081;42.698;23.298;2022-11-11T03:05:53;96421.92;;;8.86;88.12
6096;BME280;25081;42.698;23.298;2022-11-11T03:08:04;96424.84;;;8.95;88.09
6096;BME280;25081;42.698;23.298;2022-11-11T03:10:15;96419.50;;;8.99;87.72
6096;BME280;25081;42.698;23.298;2022-11-11T03:12:26;96423.76;;;9.04;87.51
6096;BME280;25081;42.698;23.298;2022-11-11T03:14:36;96428.76;;;9.03;87.65
6096;BME280;25081;42.698;23.298;2022-11-11T03:16:47;96424.27;;;9.04;87.56
6096;BME280;25081;42.698;23.298;2022-11-11T03:19:15;96418.92;;;9.08;87.46
6096;BME280;25081;42.698;23.298;2022-11-11T03:21:25;96416.98;;;9.16;87.36
6096;BME280;25081;42.698;23.298;2022-11-11T03:23:35;96415.64;;;9.21;87.43
6096;BME280;25081;42.698;23.298;2022-11-11T03:25:46;96421.14;;;9.19;87.44
6096;BME280;25081;42.698;23.298;2022-11-11T03:27:56;96420.72;;;9.26;87.63
6096;BME280;25081;42.698;23.298;2022-11-11T03:30:09;96414.58;;;9.26;87.62
6096;BME280;25081;42.698;23.298;2022-11-11T03:32:19;96411.83;;;9.34;87.92
6096;BME280;25081;42.698;23.298;2022-11-11T03:34:30;96410.11;;;9.41;87.88
6096;BME280;25081;42.698;23.298;2022-11-11T03:36:40;96409.78;;;9.40;87.36
6096;BME280;25081;42.698;23.298;2022-11-11T03:39:10;96412.88;;;9.48;87.75
6096;BME280;25081;42.698;23.298;2022-11-11T03:41:20;96410.13;;;9.56;87.61
6096;BME280;25081;42.698;23.298;2022-11-11T03:43:31;96404.96;;;9.54;87.35
6096;BME280;25081;42.698;23.298;2022-11-11T03:45:41;96404.42;;;9.59;87.36
6096;BME280;25081;42.698;23.298;2022-11-11T03:47:51;96410.67;;;9.66;87.21
6096;BME280;25081;42.698;23.298;2022-11-11T03:50:02;96414.98;;;9.67;86.98
6096;BME280;25081;42.698;23.298;2022-11-11T03:52:13;96412.77;;;9.70;87.01
6096;BME280;25081;42.698;23.298;2022-11-11T03:54:23;96410.11;;;9.70;86.98
6096;BME280;25081;42.698;23.298;2022-11-11T03:56:34;96409.06;;;9.75;87.37
6096;BME280;25081;42.698;23.298;2022-11-11T03:58:44;96407.61;;;9.84;87.39
6096;BME280;25081;42.698;23.298;2022-11-11T04:00:55;96409.92;;;9.87;87.56
6096;BME280;25081;42.698;23.298;2022-11-11T04:03:06;96412.94;;;9.84;87.58
6096;BME280;25081;42.698;23.298;2022-11-11T04:05:34;96406.44;;;9.86;88.03
6096;BME280;25081;42.698;23.298;2022-11-11T04:08:02;96404.72;;;9.89;88.17
6096;BME280;25081;42.698;23.298;2022-11-11T04:10:30;96408.50;;;9.95;88.15
6096;BME280;25081;42.698;23.298;2022-11-11T04:12:41;96408.34;;;9.92;88.46
6096;BME280;25081;42.698;23.298;2022-11-11T04:15:10;96403.99;;;9.95;88.63
6096;BME280;25081;42.698;23.298;2022-11-11T04:17:39;96404.12;;;9.98;88.39
6096;BME280;25081;42.698;23.298;2022-11-11T04:19:49;96404.75;;;10.00;88.48
6096;BME280;25081;42.698;23.298;2022-11-11T04:22:17;96407.70;;;10.05;88.28
6096;BME280;25081;42.698;23.298;2022-11-11T04:24:28;96412.33;;;10.07;88.07
6096;BME280;25081;42.698;23.298;2022-11-11T04:26:56;96411.50;;;10.07;88.19
6096;BME280;25081;42.698;23.298;2022-11-11T04:29:06;96420.31;;;10.07;88.36
6096;BME280;25081;42.698;23.298;2022-11-11T04:31:35;96418.80;;;10.09;88.15
6096;BME280;25081;42.698;23.298;2022-11-11T04:33:45;96423.17;;;10.06;88.48
6096;BME280;25081;42.698;23.298;2022-11-11T04:35:55;96425.14;;;10.08;88.61
6096;BME280;25081;42.698;23.298;2022-11-11T04:38:06;96428.53;;;10.16;88.22
6096;BME280;25081;42.698;23.298;2022-11-11T04:40:34;96427.55;;;10.13;88.42
6096;BME280;25081;42.698;23.298;2022-11-11T04:43:02;96421.48;;;10.19;88.20
6096;BME280;25081;42.698;23.298;2022-11-11T04:45:13;96422.18;;;10.17;88.51
6096;BME280;25081;42.698;23.298;2022-11-11T04:47:43;96424.22;;;10.15;88.70
6096;BME280;25081;42.698;23.298;2022-11-11T04:49:49;96425.89;;;10.12;88.90
6096;BME280;25081;42.698;23.298;2022-11-11T04:51:59;96435.29;;;10.08;89.11
6096;BME280;25081;42.698;23.298;2022-11-11T04:54:27;96436.63;;;10.08;89.16
6096;BME280;25081;42.698;23.298;2022-11-11T04:56:38;96430.09;;;10.11;89.17
6096;BME280;25081;42.698;23.298;2022-11-11T04:58:57;96433.03;;;10.16;89.00
6096;BME280;25081;42.698;23.298;2022-11-11T05:01:25;96435.19;;;10.16;89.02
6096;BME280;25081;42.698;23.298;2022-11-11T05:03:54;96432.05;;;10.13;89.05
6096;BME280;25081;42.698;23.298;2022-11-11T05:06:06;96431.38;;;10.15;88.88
6096;BME280;25081;42.698;23.298;2022-11-11T05:08:34;96428.72;;;10.15;88.90
6096;BME280;25081;42.698;23.298;2022-11-11T05:11:02;96429.86;;;10.16;88.79
6096;BME280;25081;42.698;23.298;2022-11-11T05:13:12;96432.20;;;10.15;88.69
6096;BME280;25081;42.698;23.298;2022-11-11T05:15:54;96431.55;;;10.13;88.65
6096;BME280;25081;42.698;23.298;2022-11-11T05:18:26;96424.56;;;10.12;88.56
6096;BME280;25081;42.698;23.298;2022-11-11T05:20:54;96430.09;;;10.11;88.18
6096;BME280;25081;42.698;23.298;2022-11-11T05:23:23;96441.95;;;10.08;88.24
6096;BME280;25081;42.698;23.298;2022-11-11T05:25:34;96438.36;;;10.16;88.36
6096;BME280;25081;42.698;23.298;2022-11-11T05:27:44;96440.20;;;10.15;87.87
6096;BME280;25081;42.698;23.298;2022-11-11T05:29:55;96447.63;;;10.20;87.60
6096;BME280;25081;42.698;23.298;2022-11-11T05:32:07;96441.34;;;10.17;87.51
6096;BME280;25081;42.698;23.298;2022-11-11T05:34:17;96444.29;;;10.22;87.89
6096;BME280;25081;42.698;23.298;2022-11-11T05:36:28;96449.11;;;10.22;87.33
6096;BME280;25081;42.698;23.298;2022-11-11T05:38:38;96453.27;;;10.25;86.92
6096;BME280;25081;42.698;23.298;2022-11-11T05:40:49;96463.80;;;10.18;86.90
6096;BME280;25081;42.698;23.298;2022-11-11T05:42:59;96463.90;;;10.10;87.01
6096;BME280;25081;42.698;23.298;2022-11-11T05:45:11;96468.02;;;10.13;87.04
6096;BME280;25081;42.698;23.298;2022-11-11T05:47:21;96467.39;;;10.11;86.83
6096;BME280;25081;42.698;23.298;2022-11-11T05:49:32;96464.09;;;10.09;86.88
6096;BME280;25081;42.698;23.298;2022-11-11T05:51:43;96469.04;;;10.12;86.71
6096;BME280;25081;42.698;23.298;2022-11-11T05:53:54;96470.18;;;10.13;86.86
6096;BME280;25081;42.698;23.298;2022-11-11T05:56:05;96478.14;;;10.17;86.71
6096;BME280;25081;42.698;23.298;2022-11-11T05:58:17;96486.27;;;10.24;86.39
6096;BME280;25081;42.698;23.298;2022-11-11T06:00:27;96491.30;;;10.34;86.11
6096;BME280;25081;42.698;23.298;2022-11-11T06:02:38;96488.23;;;10.26;86.02
6096;BME280;25081;42.698;23.298;2022-11-11T06:04:48;96487.98;;;10.17;86.33
6096;BME280;25081;42.698;23.298;2022-11-11T06:06:59;96495.53;;;10.28;86.58
6096;BME280;25081;42.698;23.298;2022-11-11T06:09:10;96502.47;;;10.33;85.98
6096;BME280;25081;42.698;23.298;2022-11-11T06:11:20;96498.28;;;10.35;85.81
6096;BME280;25081;42.698;23.298;2022-11-11T06:13:31;96504.16;;;10.45;85.72
6096;BME280;25081;42.698;23.298;2022-11-11T06:15:41;96513.29;;;10.46;85.43
6096;BME280;25081;42.698;23.298;2022-11-11T06:17:52;96507.11;;;10.35;85.46
6096;BME280;25081;42.698;23.298;2022-11-11T06:20:03;96513.77;;;10.35;85.68
6096;BME280;25081;42.698;23.298;2022-11-11T06:22:13;96510.00;;;10.29;86.02
6096;BME280;25081;42.698;23.298;2022-11-11T06:24:24;96515.58;;;10.24;86.09
6096;BME280;25081;42.698;23.298;2022-11-11T06:26:34;96519.23;;;10.23;86.17
6096;BME280;25081;42.698;23.298;2022-11-11T06:28:45;96520.08;;;10.19;86.34
6096;BME280;25081;42.698;23.298;2022-11-11T06:30:55;96518.50;;;10.14;86.49
6096;BME280;25081;42.698;23.298;2022-11-11T06:33:06;96524.27;;;10.18;86.41
6096;BME280;25081;42.698;23.298;2022-11-11T06:35:16;96531.13;;;10.16;86.37
6096;BME280;25081;42.698;23.298;2022-11-11T06:37:27;96530.33;;;10.12;86.36
6096;BME280;25081;42.698;23.298;2022-11-11T06:39:37;96538.59;;;10.02;86.64
6096;BME280;25081;42.698;23.298;2022-11-11T06:41:48;96539.08;;;10.06;86.80
6096;BME280;25081;42.698;23.298;2022-11-11T06:44:01;96540.85;;;10.09;86.57
6096;BME280;25081;42.698;23.298;2022-11-11T06:46:19;96538.51;;;10.10;86.69
6096;BME280;25081;42.698;23.298;2022-11-11T06:48:25;96553.96;;;10.15;86.63
6096;BME280;25081;42.698;23.298;2022-11-11T06:50:34;96549.67;;;10.10;86.87
6096;BME280;25081;42.698;23.298;2022-11-11T06:52:45;96540.58;;;10.19;87.16
6096;BME280;25081;42.698;23.298;2022-11-11T06:54:55;96551.11;;;10.16;87.25
6096;BME280;25081;42.698;23.298;2022-11-11T06:57:06;96550.55;;;10.21;87.41
6096;BME280;25081;42.698;23.298;2022-11-11T06:59:16;96552.22;;;10.22;87.27
6096;BME280;25081;42.698;23.298;2022-11-11T07:01:27;96544.89;;;10.20;87.50
6096;BME280;25081;42.698;23.298;2022-11-11T07:03:37;96547.94;;;10.17;87.35
6096;BME280;25081;42.698;23.298;2022-11-11T07:05:48;96548.45;;;10.31;87.88
6096;BME280;25081;42.698;23.298;2022-11-11T07:08:01;96552.20;;;10.26;87.60
6096;BME280;25081;42.698;23.298;2022-11-11T07:10:12;96557.75;;;10.35;87.25
6096;BME280;25081;42.698;23.298;2022-11-11T07:12:23;96554.80;;;10.30;87.15
6096;BME280;25081;42.698;23.298;2022-11-11T07:14:33;96556.06;;;10.23;87.44
6096;BME280;25081;42.698;23.298;2022-11-11T07:16:44;96551.95;;;10.31;87.43
6096;BME280;25081;42.698;23.298;2022-11-11T07:18:54;96554.02;;;10.40;87.05
6096;BME280;25081;42.698;23.298;2022-11-11T07:21:06;96556.77;;;10.47;86.60
6096;BME280;25081;42.698;23.298;2022-11-11T07:23:16;96576.36;;;10.54;86.02
6096;BME280;25081;42.698;23.298;2022-11-11T07:25:27;96559.05;;;10.65;85.70
6096;BME280;25081;42.698;23.298;2022-11-11T07:27:38;96561.91;;;10.63;85.09
6096;BME280;25081;42.698;23.298;2022-11-11T07:29:48;96560.89;;;10.64;84.86
6096;BME280;25081;42.698;23.298;2022-11-11T07:31:59;96560.48;;;10.71;85.36
6096;BME280;25081;42.698;23.298;2022-11-11T07:34:09;96572.55;;;10.52;85.01
6096;BME280;25081;42.698;23.298;2022-11-11T07:36:20;96575.75;;;10.48;85.33
6096;BME280;25081;42.698;23.298;2022-11-11T07:38:30;96579.22;;;10.52;85.19
6096;BME280;25081;42.698;23.298;2022-11-11T07:40:41;96580.30;;;10.58;85.09
6096;BME280;25081;42.698;23.298;2022-11-11T07:42:51;96589.09;;;10.63;84.36
6096;BME280;25081;42.698;23.298;2022-11-11T07:45:02;96578.99;;;10.69;84.45
6096;BME280;25081;42.698;23.298;2022-11-11T07:47:13;96582.89;;;10.77;84.45
6096;BME280;25081;42.698;23.298;2022-11-11T07:49:24;96588.88;;;10.89;83.42
6096;BME280;25081;42.698;23.298;2022-11-11T07:51:34;96592.67;;;10.80;83.18
6096;BME280;25081;42.698;23.298;2022-11-11T07:53:45;96592.10;;;10.74;83.35
6096;BME280;25081;42.698;23.298;2022-11-11T07:55:55;96593.50;;;10.55;83.48
6096;BME280;25081;42.698;23.298;2022-11-11T07:58:06;96597.66;;;10.43;84.00
6096;BME280;25081;42.698;23.298;2022-11-11T08:00:18;96600.34;;;10.39;84.10
6096;BME280;25081;42.698;23.298;2022-11-11T08:02:28;96602.37;;;10.37;83.98
6096;BME280;25081;42.698;23.298;2022-11-11T08:04:39;96609.36;;;10.38;83.81
6096;BME280;25081;42.698;23.298;2022-11-11T08:06:49;96595.90;;;10.36;83.81
6096;BME280;25081;42.698;23.298;2022-11-11T08:09:00;96604.48;;;10.27;84.28
6096;BME280;25081;42.698;23.298;2022-11-11T08:11:10;96604.43;;;10.31;84.30
6096;BME280;25081;42.698;23.298;2022-11-11T08:13:21;96595.92;;;10.31;84.28
6096;BME280;25081;42.698;23.298;2022-11-11T08:15:49;96602.61;;;10.46;83.72
6096;BME280;25081;42.698;23.298;2022-11-11T08:18:00;96601.72;;;10.50;83.10
6096;BME280;25081;42.698;23.298;2022-11-11T08:20:12;96599.85;;;10.54;82.74
6096;BME280;25081;42.698;23.298;2022-11-11T08:22:22;96605.76;;;10.60;82.56
6096;BME280;25081;42.698;23.298;2022-11-11T08:24:33;96598.89;;;10.77;81.91
6096;BME280;25081;42.698;23.298;2022-11-11T08:26:43;96601.36;;;10.93;81.38
6096;BME280;25081;42.698;23.298;2022-11-11T08:28:54;96599.63;;;11.11;80.50
6096;BME280;25081;42.698;23.298;2022-11-11T08:31:05;96600.18;;;11.17;79.73
6096;BME280;25081;42.698;23.298;2022-11-11T08:33:15;96600.44;;;11.11;79.90
6096;BME280;25081;42.698;23.298;2022-11-11T08:35:26;96603.09;;;11.01;80.15
6096;BME280;25081;42.698;23.298;2022-11-11T08:37:36;96607.44;;;10.87;80.78
6096;BME280;25081;42.698;23.298;2022-11-11T08:39:47;96607.52;;;10.94;80.54
6096;BME280;25081;42.698;23.298;2022-11-11T08:41:57;96604.38;;;11.15;79.74
6096;BME280;25081;42.698;23.298;2022-11-11T08:44:08;96605.67;;;11.20;79.33
6096;BME280;25081;42.698;23.298;2022-11-11T08:46:19;96603.52;;;11.30;79.20
6096;BME280;25081;42.698;23.298;2022-11-11T08:48:30;96601.09;;;11.35;78.62
6096;BME280;25081;42.698;23.298;2022-11-11T08:50:40;96599.52;;;11.40;78.94
6096;BME280;25081;42.698;23.298;2022-11-11T08:52:51;96603.13;;;11.54;78.07
6096;BME280;25081;42.698;23.298;2022-11-11T08:55:01;96602.92;;;11.66;77.39
6096;BME280;25081;42.698;23.298;2022-11-11T08:57:12;96596.63;;;11.74;76.98
6096;BME280;25081;42.698;23.298;2022-11-11T08:59:22;96594.23;;;11.90;76.35
6096;BME280;25081;42.698;23.298;2022-11-11T09:01:33;96603.59;;;11.90;75.80
6096;BME280;25081;42.698;23.298;2022-11-11T09:03:43;96599.44;;;11.98;75.53
6096;BME280;25081;42.698;23.298;2022-11-11T09:05:54;96598.87;;;11.92;75.38
6096;BME280;25081;42.698;23.298;2022-11-11T09:08:05;96597.36;;;11.83;75.77
6096;BME280;25081;42.698;23.298;2022-11-11T09:10:16;96600.01;;;11.72;75.46
6096;BME280;25081;42.698;23.298;2022-11-11T09:12:26;96599.23;;;11.67;75.24
6096;BME280;25081;42.698;23.298;2022-11-11T09:14:36;96600.65;;;11.63;75.82
6096;BME280;25081;42.698;23.298;2022-11-11T09:16:47;96597.74;;;11.58;75.77
6096;BME280;25081;42.698;23.298;2022-11-11T09:18:57;96593.39;;;11.57;75.47
6096;BME280;25081;42.698;23.298;2022-11-11T09:21:08;96598.80;;;11.64;75.15
6096;BME280;25081;42.698;23.298;2022-11-11T09:23:18;96598.17;;;11.62;74.93
6096;BME280;25081;42.698;23.298;2022-11-11T09:25:29;96601.59;;;11.56;75.21
6096;BME280;25081;42.698;23.298;2022-11-11T09:27:39;96603.40;;;11.59;74.97
6096;BME280;25081;42.698;23.298;2022-11-11T09:29:50;96601.75;;;11.58;74.79
6096;BME280;25081;42.698;23.298;2022-11-11T09:32:00;96597.47;;;11.64;74.56
6096;BME280;25081;42.698;23.298;2022-11-11T09:34:11;96600.22;;;11.60;73.61
6096;BME280;25081;42.698;23.298;2022-11-11T09:36:22;96591.06;;;11.58;73.62
6096;BME280;25081;42.698;23.298;2022-11-11T09:38:32;96594.75;;;11.68;73.46
6096;BME280;25081;42.698;23.298;2022-11-11T09:40:52;96592.01;;;11.83;72.92
6096;BME280;25081;42.698;23.298;2022-11-11T09:43:08;96592.81;;;11.94;71.86
6096;BME280;25081;42.698;23.298;2022-11-11T09:45:18;96586.95;;;11.94;71.50
6096;BME280;25081;42.698;23.298;2022-11-11T09:47:29;96587.84;;;12.01;71.44
6096;BME280;25081;42.698;23.298;2022-11-11T09:49:45;96585.84;;;12.10;71.07
6096;BME280;25081;42.698;23.298;2022-11-11T09:51:57;96584.88;;;12.18;70.83
6096;BME280;25081;42.698;23.298;2022-11-11T09:54:10;96578.00;;;12.19;71.06
6096;BME280;25081;42.698;23.298;2022-11-11T09:56:19;96579.84;;;12.19;71.34
6096;BME280;25081;42.698;23.298;2022-11-11T09:58:30;96579.25;;;12.23;71.17
6096;BME280;25081;42.698;23.298;2022-11-11T10:00:40;96579.41;;;12.32;70.83
6096;BME280;25081;42.698;23.298;2022-11-11T10:02:51;96573.75;;;12.49;70.45
6096;BME280;25081;42.698;23.298;2022-11-11T10:05:03;96572.31;;;12.53;69.98
6096;BME280;25081;42.698;23.298;2022-11-11T10:07:17;96569.06;;;12.57;69.57
6096;BME280;25081;42.698;23.298;2022-11-11T10:09:24;96560.92;;;12.79;69.04
6096;BME280;25081;42.698;23.298;2022-11-11T10:11:38;96563.05;;;12.97;68.32
6096;BME280;25081;42.698;23.298;2022-11-11T10:13:46;96558.79;;;12.85;67.92
6096;BME280;25081;42.698;23.298;2022-11-11T10:15:59;96562.05;;;13.04;67.34
6096;BME280;25081;42.698;23.298;2022-11-11T10:18:33;96561.77;;;12.86;67.57
6096;BME280;25081;42.698;23.298;2022-11-11T10:20:42;96559.27;;;13.08;66.99
6096;BME280;25081;42.698;23.298;2022-11-11T10:22:54;96572.03;;;13.06;66.74
6096;BME280;25081;42.698;23.298;2022-11-11T10:25:15;96563.69;;;13.05;66.70
6096;BME280;25081;42.698;23.298;2022-11-11T10:27:23;96568.15;;;13.15;66.37
6096;BME280;25081;42.698;23.298;2022-11-11T10:29:38;96538.61;;;12.89;66.69
6096;BME280;25081;42.698;23.298;2022-11-11T10:31:49;96564.05;;;12.89;67.32
6096;BME280;25081;42.698;23.298;2022-11-11T10:33:59;96564.48;;;12.99;66.92
6096;BME280;25081;42.698;23.298;2022-11-11T10:36:12;96561.23;;;12.80;67.67
6096;BME280;25081;42.698;23.298;2022-11-11T10:38:32;96555.37;;;12.56;68.36
6096;BME280;25081;42.698;23.298;2022-11-11T10:40:45;96558.41;;;12.47;68.72
6096;BME280;25081;42.698;23.298;2022-11-11T10:42:53;96552.86;;;12.48;68.64
6096;BME280;25081;42.698;23.298;2022-11-11T10:45:07;96554.72;;;12.54;68.01
6096;BME280;25081;42.698;23.298;2022-11-11T10:47:15;96555.75;;;12.53;67.63
6096;BME280;25081;42.698;23.298;2022-11-11T10:49:26;96553.69;;;12.31;67.93
6096;BME280;25081;42.698;23.298;2022-11-11T10:51:37;96554.36;;;12.23;67.78
6096;BME280;25081;42.698;23.298;2022-11-11T10:53:50;96554.47;;;12.25;67.43
6096;BME280;25081;42.698;23.298;2022-11-11T10:56:01;96545.98;;;12.32;67.26
6096;BME280;25081;42.698;23.298;2022-11-11T10:58:14;96550.86;;;12.40;67.25
6096;BME280;25081;42.698;23.298;2022-11-11T11:00:21;96552.09;;;12.44;67.20
6096;BME280;25081;42.698;23.298;2022-11-11T11:02:33;96547.31;;;12.50;66.58
6096;BME280;25081;42.698;23.298;2022-11-11T11:04:44;96545.45;;;12.50;66.59
6096;BME280;25081;42.698;23.298;2022-11-11T11:06:54;96540.52;;;12.47;66.42
6096;BME280;25081;42.698;23.298;2022-11-11T11:09:10;96542.57;;;12.45;65.59
6096;BME280;25081;42.698;23.298;2022-11-11T11:11:19;96529.45;;;12.57;65.29
6096;BME280;25081;42.698;23.298;2022-11-11T11:13:33;96537.99;;;12.63;65.12
6096;BME280;25081;42.698;23.298;2022-11-11T11:15:43;96527.12;;;12.65;64.89
6096;BME280;25081;42.698;23.298;2022-11-11T11:17:56;96535.22;;;12.84;64.07
6096;BME280;25081;42.698;23.298;2022-11-11T11:20:11;96528.58;;;13.04;63.48
6096;BME280;25081;42.698;23.298;2022-11-11T11:22:21;96531.23;;;12.98;63.37
6096;BME280;25081;42.698;23.298;2022-11-11T11:24:32;96529.92;;;13.04;63.54
6096;BME280;25081;42.698;23.298;2022-11-11T11:26:46;96526.42;;;13.04;62.41
6096;BME280;25081;42.698;23.298;2022-11-11T11:28:56;96524.56;;;13.04;62.28
6096;BME280;25081;42.698;23.298;2022-11-11T11:31:06;96515.11;;;13.15;61.53
6096;BME280;25081;42.698;23.298;2022-11-11T11:33:17;96513.64;;;13.06;61.01
6096;BME280;25081;42.698;23.298;2022-11-11T11:35:32;96509.11;;;13.06;60.75
6096;BME280;25081;42.698;23.298;2022-11-11T11:37:49;96510.84;;;13.34;59.93
6096;BME280;25081;42.698;23.298;2022-11-11T11:40:00;96506.21;;;13.32;59.53
6096;BME280;25081;42.698;23.298;2022-11-11T11:42:26;96500.02;;;13.38;59.43
6096;BME280;25081;42.698;23.298;2022-11-11T11:44:37;96509.41;;;13.44;59.27
6096;BME280;25081;42.698;23.298;2022-11-11T11:46:47;96500.03;;;13.44;58.80
6096;BME280;25081;42.698;23.298;2022-11-11T11:49:20;96502.72;;;13.51;58.61
6096;BME280;25081;42.698;23.298;2022-11-11T11:51:32;96501.23;;;13.29;58.92